createdAt,value
2019-03-31T00:00:32.949Z,17.50
2019-03-31T00:03:08.307Z,15.03
2019-03-31T00:06:40.708Z,13.93
2019-03-31T00:09:16.287Z,14.57
2019-03-31T00:11:51.653Z,13.70
2019-03-31T00:14:27.935Z,14.80
2019-03-31T00:17:03.325Z,12.27
2019-03-31T00:19:38.694Z,13.55
2019-03-31T00:22:14.133Z,13.98
2019-03-31T00:24:49.604Z,19.87
2019-03-31T00:27:25.253Z,13.70
2019-03-31T00:30:00.700Z,14.15
2019-03-31T00:32:36.285Z,14.15
2019-03-31T00:35:12.280Z,12.33
2019-03-31T00:37:47.697Z,16.12
2019-03-31T00:40:23.255Z,15.23
2019-03-31T00:42:58.772Z,13.20
2019-03-31T00:45:34.273Z,12.47
2019-03-31T00:48:09.659Z,11.80
2019-03-31T00:50:45.275Z,10.70
2019-03-31T00:53:20.653Z,9.10
2019-03-31T00:55:56.263Z,11.80
2019-03-31T00:58:31.655Z,12.47
2019-03-31T01:01:35.746Z,11.53
2019-03-31T01:04:01.939Z,11.68
2019-03-31T01:06:39.491Z,11.23
2019-03-31T01:09:35.623Z,12.03
2019-03-31T01:12:11.276Z,13.70
2019-03-31T01:14:47.298Z,13.77
2019-03-31T01:17:23.590Z,14.10
2019-03-31T01:20:00.953Z,12.20
2019-03-31T01:22:36.341Z,10.23
2019-03-31T01:25:13.651Z,13.33
2019-03-31T01:27:49.289Z,11.73
2019-03-31T01:30:25.120Z,13.08
2019-03-31T01:33:00.531Z,11.17
2019-03-31T01:35:35.892Z,11.47
2019-03-31T01:40:44.782Z,11.80
2019-03-31T01:43:20.330Z,13.30
2019-03-31T01:45:55.798Z,17.40
2019-03-31T01:48:31.303Z,14.35
2019-03-31T01:51:06.960Z,11.70
2019-03-31T01:53:42.687Z,14.50
2019-03-31T01:56:18.286Z,12.82
2019-03-31T01:58:53.790Z,14.10
2019-03-31T02:01:30.712Z,12.07
2019-03-31T02:06:40.684Z,12.60
2019-03-31T02:09:16.283Z,13.70
2019-03-31T02:11:51.680Z,13.20
2019-03-31T02:14:27.274Z,16.73
2019-03-31T02:17:02.766Z,14.47
2019-03-31T02:19:38.276Z,13.07
2019-03-31T02:22:13.676Z,13.17
2019-03-31T02:24:49.287Z,13.13
2019-03-31T02:27:25.661Z,17.60
2019-03-31T02:30:01.352Z,12.20
2019-03-31T02:35:10.882Z,11.03
2019-03-31T02:40:19.958Z,10.43
2019-03-31T02:45:28.655Z,11.60
2019-03-31T02:48:04.281Z,13.30
2019-03-31T02:50:51.694Z,13.30
2019-03-31T02:53:27.292Z,11.53
2019-03-31T02:56:03.283Z,11.50
2019-03-31T02:58:39.755Z,12.43
2019-03-31T03:01:18.294Z,14.37
2019-03-31T03:03:53.790Z,9.80
2019-03-31T03:08:11.283Z,11.53
2019-03-31T03:10:47.660Z,16.15
2019-03-31T03:13:25.487Z,12.43
2019-03-31T03:16:20.286Z,12.20
2019-03-31T03:18:55.742Z,11.67
2019-03-31T03:21:31.568Z,13.10
2019-03-31T03:24:07.273Z,12.87
2019-03-31T03:26:42.702Z,14.90
2019-03-31T03:29:18.312Z,20.05
2019-03-31T03:31:53.753Z,16.87
2019-03-31T03:37:03.690Z,16.07
2019-03-31T03:39:40.132Z,11.73
2019-03-31T03:42:15.682Z,11.00
2019-03-31T03:44:51.283Z,10.17
2019-03-31T03:47:26.680Z,12.58
2019-03-31T03:50:02.138Z,12.85
2019-03-31T03:52:37.685Z,12.83
2019-03-31T03:55:13.273Z,13.63
2019-03-31T03:57:48.684Z,13.93
2019-03-31T04:02:57.680Z,14.77
2019-03-31T04:05:33.250Z,12.67
2019-03-31T04:08:08.681Z,15.93
2019-03-31T04:11:20.598Z,12.78
2019-03-31T04:13:53.279Z,9.97
2019-03-31T04:16:29.593Z,13.20
2019-03-31T04:21:39.676Z,12.43
2019-03-31T04:26:48.796Z,13.28
2019-03-31T04:31:57.790Z,12.00
2019-03-31T04:34:33.268Z,11.90
2019-03-31T04:37:08.668Z,10.10
2019-03-31T04:39:44.282Z,10.03
2019-03-31T04:42:19.748Z,12.03
2019-03-31T04:44:55.275Z,10.20
2019-03-31T04:47:30.758Z,14.20
2019-03-31T04:50:06.273Z,12.07
2019-03-31T04:52:41.703Z,10.87
2019-03-31T04:55:17.265Z,10.53
2019-03-31T04:57:52.819Z,10.27
2019-03-31T05:03:01.744Z,13.55
2019-03-31T05:05:37.209Z,12.83
2019-03-31T05:08:12.667Z,12.00
2019-03-31T05:10:48.259Z,12.25
2019-03-31T05:13:23.700Z,10.70
2019-03-31T05:15:59.284Z,10.90
2019-03-31T05:18:34.694Z,13.28
2019-03-31T05:21:10.274Z,12.70
2019-03-31T05:23:45.666Z,12.13
2019-03-31T05:27:05.773Z,10.90
2019-03-31T05:32:14.867Z,13.03
2019-03-31T05:34:50.268Z,13.50
2019-03-31T05:37:25.687Z,12.87
2019-03-31T05:40:01.275Z,14.58
2019-03-31T05:42:36.703Z,11.90
2019-03-31T05:45:12.270Z,11.77
2019-03-31T05:47:47.704Z,14.70
2019-03-31T05:50:23.247Z,12.03
2019-03-31T05:52:58.713Z,11.70
2019-03-31T05:55:34.276Z,10.47
2019-03-31T05:58:09.673Z,13.20
2019-03-31T06:00:49.087Z,12.43
2019-03-31T06:03:24.630Z,14.47
2019-03-31T06:06:00.240Z,10.82
2019-03-31T06:08:35.689Z,10.73
2019-03-31T06:11:11.264Z,11.08
2019-03-31T06:13:46.686Z,11.87
2019-03-31T06:16:22.269Z,13.13
2019-03-31T06:18:57.680Z,13.20
2019-03-31T06:21:34.640Z,16.52
2019-03-31T06:24:10.270Z,18.30
2019-03-31T06:26:45.766Z,13.88
2019-03-31T06:31:54.871Z,14.55
2019-03-31T06:37:03.677Z,11.93
2019-03-31T06:39:39.267Z,15.45
2019-03-31T06:42:14.676Z,14.38
2019-03-31T06:44:50.278Z,14.97
2019-03-31T06:47:25.766Z,15.90
2019-03-31T06:52:34.655Z,13.72
2019-03-31T06:55:10.676Z,15.35
2019-03-31T06:57:46.177Z,15.23
2019-03-31T07:00:21.713Z,17.67
2019-03-31T07:02:57.275Z,16.43
2019-03-31T07:05:32.690Z,16.23
2019-03-31T07:08:08.309Z,17.67
2019-03-31T07:10:43.739Z,13.85
2019-03-31T07:13:22.278Z,17.55
2019-03-31T07:15:57.680Z,20.10
2019-03-31T07:18:34.285Z,21.62
2019-03-31T07:22:07.296Z,21.87
2019-03-31T07:24:43.270Z,22.67
2019-03-31T07:27:21.412Z,25.97
2019-03-31T07:29:57.109Z,21.12
2019-03-31T07:32:33.285Z,22.48
2019-03-31T07:35:18.524Z,26.60
2019-03-31T07:37:53.128Z,28.57
2019-03-31T07:40:29.937Z,26.10
2019-03-31T07:43:06.074Z,26.70
2019-03-31T07:48:17.806Z,32.70
2019-03-31T07:53:26.870Z,28.07
2019-03-31T07:56:02.253Z,28.05
2019-03-31T07:58:37.697Z,30.73
2019-03-31T08:03:46.862Z,41.73
2019-03-31T08:08:56.686Z,37.07
2019-03-31T08:11:33.882Z,34.23
2019-03-31T08:14:09.330Z,35.23
2019-03-31T08:16:45.670Z,35.98
2019-03-31T08:19:22.246Z,30.68
2019-03-31T08:21:58.246Z,33.75
2019-03-31T08:24:43.651Z,33.08
2019-03-31T08:27:19.324Z,32.83
2019-03-31T08:30:00.542Z,37.38
2019-03-31T08:32:32.403Z,39.93
2019-03-31T08:35:08.860Z,39.63
2019-03-31T08:37:44.332Z,35.90
2019-03-31T08:40:20.516Z,35.35
2019-03-31T08:42:55.968Z,29.85
2019-03-31T08:45:31.279Z,30.37
2019-03-31T08:48:06.770Z,37.30
2019-03-31T08:53:16.818Z,31.43
2019-03-31T08:58:25.694Z,30.23
2019-03-31T09:01:50.765Z,28.62
2019-03-31T09:04:26.341Z,28.40
2019-03-31T09:07:02.112Z,28.50
2019-03-31T09:09:37.895Z,31.65
2019-03-31T09:12:13.434Z,31.00
2019-03-31T09:14:48.869Z,31.97
2019-03-31T09:17:24.278Z,30.82
2019-03-31T09:20:00.702Z,32.50
2019-03-31T09:25:10.709Z,35.08
2019-03-31T09:27:46.149Z,29.90
2019-03-31T09:30:21.318Z,36.13
2019-03-31T09:32:56.672Z,30.90
2019-03-31T09:35:32.276Z,33.03
2019-03-31T09:38:07.662Z,36.73
2019-03-31T09:40:44.273Z,34.67
2019-03-31T09:43:19.891Z,33.73
2019-03-31T09:48:28.870Z,33.30
2019-03-31T09:53:37.866Z,34.60
2019-03-31T09:56:15.229Z,36.27
2019-03-31T09:58:50.283Z,30.30
2019-03-31T10:01:25.710Z,37.58
2019-03-31T10:04:01.283Z,31.23
2019-03-31T10:06:38.642Z,31.20
2019-03-31T10:09:14.276Z,34.57
2019-03-31T10:11:49.689Z,34.43
2019-03-31T10:14:25.271Z,35.30
2019-03-31T10:17:00.666Z,30.00
2019-03-31T10:19:36.283Z,35.88
2019-03-31T10:22:11.703Z,35.10
2019-03-31T10:27:20.823Z,30.27
2019-03-31T10:32:29.784Z,30.70
2019-03-31T10:37:38.648Z,35.53
2019-03-31T10:40:14.290Z,35.43
2019-03-31T10:42:49.647Z,40.73
2019-03-31T10:45:25.276Z,33.73
2019-03-31T10:48:00.652Z,32.80
2019-03-31T10:50:35.943Z,37.53
2019-03-31T10:53:11.274Z,39.47
2019-03-31T10:55:46.769Z,34.27
2019-03-31T11:00:55.776Z,42.47
2019-03-31T11:06:06.684Z,36.67
2019-03-31T11:08:42.206Z,33.50
2019-03-31T11:11:17.656Z,35.43
2019-03-31T11:13:53.133Z,34.83
2019-03-31T11:16:28.963Z,32.93
2019-03-31T11:19:04.304Z,35.03
2019-03-31T11:21:44.707Z,37.70
2019-03-31T11:24:20.278Z,33.50
2019-03-31T11:26:55.680Z,35.73
2019-03-31T11:32:04.692Z,34.83
2019-03-31T11:34:40.274Z,33.93
2019-03-31T11:37:15.688Z,40.95
2019-03-31T11:39:51.255Z,32.70
2019-03-31T11:42:26.687Z,34.00
2019-03-31T11:45:02.283Z,33.27
2019-03-31T11:47:37.655Z,35.87
2019-03-31T11:50:13.336Z,34.45
2019-03-31T11:52:48.684Z,34.63
2019-03-31T11:56:56.326Z,35.17
2019-03-31T11:59:31.712Z,30.07
2019-03-31T12:02:07.273Z,33.70
2019-03-31T12:04:45.279Z,35.53
2019-03-31T12:07:27.838Z,34.33
2019-03-31T12:09:57.722Z,36.75
2019-03-31T12:12:33.284Z,37.50
2019-03-31T12:15:09.310Z,38.60
2019-03-31T12:17:46.337Z,34.98
2019-03-31T12:20:21.678Z,36.70
2019-03-31T12:22:57.277Z,39.87
2019-03-31T12:25:32.669Z,36.17
2019-03-31T12:28:08.269Z,35.90
2019-03-31T12:30:43.672Z,32.57
2019-03-31T12:33:19.276Z,34.17
2019-03-31T12:35:54.661Z,35.28
2019-03-31T12:38:30.265Z,33.33
2019-03-31T12:41:05.695Z,34.73
2019-03-31T12:43:41.276Z,34.23
2019-03-31T12:48:46.936Z,33.00
2019-03-31T12:51:22.275Z,35.30
2019-03-31T12:53:57.688Z,37.27
2019-03-31T12:56:33.979Z,31.50
2019-03-31T12:59:09.537Z,33.17
2019-03-31T13:01:44.888Z,33.28
2019-03-31T13:06:53.887Z,29.70
2019-03-31T13:09:29.339Z,35.92
2019-03-31T13:12:05.106Z,33.43
2019-03-31T13:27:52.730Z,32.98
2019-03-31T13:30:28.266Z,30.67
2019-03-31T13:33:03.658Z,30.95
2019-03-31T13:35:39.475Z,32.33
2019-03-31T13:38:15.871Z,34.15
2019-03-31T13:43:26.127Z,31.37
2019-03-31T13:46:01.811Z,32.60
2019-03-31T13:51:10.714Z,73.50
2019-03-31T13:53:46.276Z,38.63
2019-03-31T13:56:21.776Z,30.80
2019-03-31T13:58:57.274Z,30.23
2019-03-31T14:01:33.827Z,30.03
2019-03-31T14:06:42.891Z,29.95
2019-03-31T14:09:18.320Z,31.43
2019-03-31T14:11:54.443Z,28.27
2019-03-31T14:14:30.266Z,44.98
2019-03-31T14:17:05.689Z,31.90
2019-03-31T14:19:41.345Z,29.77
2019-03-31T14:22:16.721Z,28.20
2019-03-31T14:27:25.679Z,30.13
2019-03-31T14:30:01.128Z,25.57
2019-03-31T14:32:48.831Z,28.87
2019-03-31T14:35:24.634Z,32.98
2019-03-31T14:38:00.733Z,34.07
2019-03-31T14:40:36.284Z,29.42
2019-03-31T14:43:11.948Z,29.83
2019-03-31T14:45:47.641Z,35.97
2019-03-31T14:48:23.299Z,32.80
2019-03-31T14:50:58.671Z,31.40
2019-03-31T14:53:34.289Z,34.87
2019-03-31T14:56:09.659Z,31.05
2019-03-31T14:58:45.274Z,33.50
2019-03-31T15:01:21.412Z,29.60
2019-03-31T15:03:56.877Z,32.70
2019-03-31T15:06:33.775Z,34.53
2019-03-31T15:10:30.557Z,33.55
2019-03-31T15:13:06.281Z,25.90
2019-03-31T15:15:42.364Z,33.20
2019-03-31T15:18:17.887Z,33.77
2019-03-31T15:20:53.271Z,53.90
2019-03-31T15:23:29.353Z,30.47
2019-03-31T15:26:05.087Z,27.00
2019-03-31T15:28:40.730Z,27.03
2019-03-31T15:33:50.269Z,23.85
2019-03-31T15:36:25.945Z,23.47
2019-03-31T15:39:08.661Z,25.13
2019-03-31T15:42:47.873Z,21.82
2019-03-31T15:45:23.304Z,22.37
2019-03-31T15:47:58.718Z,27.30
2019-03-31T15:53:07.946Z,23.60
2019-03-31T15:55:43.271Z,26.00
2019-03-31T15:58:18.736Z,24.43
2019-03-31T16:03:17.895Z,24.60
2019-03-31T16:05:53.375Z,26.93
2019-03-31T16:08:28.248Z,30.23
2019-03-31T16:11:04.957Z,27.83
2019-03-31T16:13:39.945Z,26.20
2019-03-31T16:16:14.656Z,30.17
2019-03-31T16:18:49.274Z,29.10
2019-03-31T16:21:51.325Z,30.30
2019-03-31T16:24:38.270Z,28.07
2019-03-31T16:27:13.251Z,26.03
2019-03-31T16:29:47.884Z,27.07
2019-03-31T16:40:01.655Z,28.57
2019-03-31T16:42:36.287Z,29.63
2019-03-31T16:45:11.119Z,27.87
2019-03-31T16:47:45.772Z,33.27
2019-03-31T16:52:53.854Z,28.33
2019-03-31T16:58:01.634Z,99.27
2019-03-31T17:00:36.272Z,45.80
2019-03-31T17:03:10.721Z,30.12
2019-03-31T17:15:57.620Z,31.35
2019-03-31T17:18:32.229Z,29.70
2019-03-31T17:22:26.067Z,28.00
2019-03-31T17:25:00.674Z,25.60
2019-03-31T17:27:35.251Z,27.60
2019-03-31T17:30:11.315Z,30.30
2019-03-31T17:32:45.918Z,31.10
2019-03-31T17:35:20.364Z,35.38
2019-03-31T17:37:55.241Z,28.67
2019-03-31T17:40:29.879Z,27.73
2019-03-31T17:48:11.467Z,25.95
2019-03-31T17:50:46.946Z,26.43
2019-03-31T17:53:21.339Z,27.07
2019-03-31T17:55:55.915Z,19.87
2019-03-31T17:58:30.290Z,20.65
2019-03-31T18:01:04.947Z,22.22
2019-03-31T18:06:12.409Z,17.07
2019-03-31T18:08:47.280Z,13.10
2019-03-31T18:11:21.771Z,14.00
2019-03-31T18:16:29.326Z,12.80
2019-03-31T18:19:04.135Z,12.40
2019-03-31T18:21:39.766Z,11.77
2019-03-31T18:26:47.271Z,8.90
2019-03-31T18:29:21.834Z,9.73
2019-03-31T18:34:29.326Z,10.80
2019-03-31T18:37:03.934Z,8.27
2019-03-31T18:39:38.270Z,8.77
2019-03-31T18:42:12.873Z,9.38
2019-03-31T18:44:47.325Z,11.50
2019-03-31T18:47:22.111Z,11.63
2019-03-31T18:49:57.653Z,9.77
2019-03-31T18:52:32.098Z,9.97
2019-03-31T18:55:28.466Z,6.87
2019-03-31T18:58:09.560Z,10.37
2019-03-31T19:00:52.764Z,8.53
2019-03-31T19:06:43.270Z,6.93
2019-03-31T19:09:54.681Z,6.83
2019-03-31T19:12:51.118Z,10.58
2019-03-31T19:15:43.334Z,7.37
2019-03-31T19:18:28.410Z,7.23
2019-03-31T19:21:40.264Z,10.30
2019-03-31T19:24:45.911Z,11.47
2019-03-31T19:27:32.951Z,5.83
2019-03-31T19:30:26.673Z,7.10
2019-03-31T19:33:08.274Z,7.20
2019-03-31T19:36:10.699Z,5.83
2019-03-31T19:44:41.720Z,8.20
2019-03-31T19:50:15.556Z,6.07
2019-03-31T19:53:08.682Z,5.83
2019-03-31T19:56:07.508Z,5.80
2019-03-31T19:58:52.874Z,5.17
2019-03-31T20:04:43.504Z,6.80
2019-03-31T20:07:36.558Z,5.53
2019-03-31T20:10:23.618Z,13.33
2019-03-31T20:13:10.284Z,8.63
2019-03-31T20:16:02.901Z,6.97
2019-03-31T20:19:02.382Z,5.27
2019-03-31T20:22:03.714Z,6.28
2019-03-31T20:24:55.613Z,5.67
2019-03-31T20:27:47.504Z,5.33
2019-03-31T20:30:43.681Z,5.47
2019-03-31T20:33:39.334Z,4.80
2019-03-31T20:36:43.637Z,5.23
2019-03-31T20:39:56.825Z,6.92
2019-03-31T20:42:45.404Z,4.90
2019-03-31T20:46:09.656Z,5.17
2019-03-31T20:48:44.081Z,5.90
2019-03-31T20:51:18.559Z,7.10
2019-03-31T20:53:53.073Z,8.30
2019-03-31T20:56:28.132Z,5.20
2019-03-31T20:59:02.974Z,4.50
2019-03-31T21:01:39.697Z,5.70
2019-03-31T21:04:14.268Z,10.35
2019-03-31T21:06:48.671Z,5.00
2019-03-31T21:09:23.081Z,6.43
2019-03-31T21:11:57.649Z,7.13
2019-03-31T21:14:33.681Z,5.15
2019-03-31T21:17:09.119Z,6.20
2019-03-31T21:19:43.883Z,5.93
2019-03-31T21:22:18.275Z,5.53
2019-03-31T21:24:52.934Z,5.67
2019-03-31T21:30:00.633Z,5.97
2019-03-31T21:32:35.112Z,7.90
2019-03-31T21:35:09.699Z,5.77
2019-03-31T21:37:44.046Z,4.95
2019-03-31T21:42:45.279Z,6.92
2019-03-31T21:47:04.714Z,7.40
2019-03-31T21:49:39.288Z,7.27
2019-03-31T21:52:14.273Z,5.40
2019-03-31T21:54:48.787Z,5.93
2019-03-31T21:57:23.115Z,6.00
2019-03-31T21:59:57.658Z,7.10
2019-03-31T22:02:31.946Z,5.33
2019-03-31T22:05:06.740Z,6.53
2019-03-31T22:07:41.292Z,5.87
2019-03-31T22:10:16.021Z,8.37
2019-03-31T22:12:50.585Z,6.07
2019-03-31T22:15:25.081Z,9.15
2019-03-31T22:17:59.671Z,6.67
2019-03-31T22:20:34.134Z,6.23
2019-03-31T22:23:08.947Z,5.17
2019-03-31T22:28:16.716Z,4.83
2019-03-31T22:31:37.651Z,5.80
2019-03-31T22:34:12.286Z,5.50
2019-03-31T22:36:46.794Z,4.60
2019-03-31T22:41:54.261Z,5.95
2019-03-31T22:44:28.689Z,4.70
2019-03-31T22:47:03.079Z,4.97
2019-03-31T22:49:38.693Z,4.60
2019-03-31T22:52:13.302Z,6.23
2019-03-31T22:54:47.749Z,5.50
2019-03-31T22:57:23.078Z,4.65
2019-03-31T22:59:57.691Z,5.83
2019-03-31T23:02:32.285Z,4.53
2019-03-31T23:05:06.736Z,3.62
2019-03-31T23:07:40.960Z,7.17
2019-03-31T23:10:15.121Z,6.40
2019-03-31T23:12:49.684Z,6.10
2019-03-31T23:15:24.096Z,9.58
2019-03-31T23:17:58.624Z,4.73
2019-03-31T23:20:33.277Z,5.58
2019-03-31T23:23:07.692Z,4.53
2019-03-31T23:25:41.948Z,3.47
2019-03-31T23:30:49.126Z,4.67
2019-03-31T23:33:23.676Z,3.57
2019-03-31T23:35:57.954Z,4.17
2019-03-31T23:38:32.087Z,5.65
2019-03-31T23:41:06.660Z,4.53
2019-03-31T23:43:44.263Z,5.20
2019-03-31T23:46:18.711Z,5.57
2019-03-31T23:48:52.955Z,7.60
2019-03-31T23:53:59.951Z,3.17
2019-03-31T23:59:07.592Z,7.93
